createdAt,value
2023-02-15T00:01:43.785Z,18.57
2023-02-15T00:04:10.925Z,19.07
2023-02-15T00:06:37.470Z,19.00
2023-02-15T00:09:04.353Z,18.67
2023-02-15T00:11:49.453Z,19.17
2023-02-15T00:14:21.156Z,18.57
2023-02-15T00:16:48.674Z,17.47
2023-02-15T00:19:17.036Z,20.30
2023-02-15T00:21:43.544Z,21.60
2023-02-15T00:24:11.943Z,19.43
2023-02-15T00:26:42.588Z,18.87
2023-02-15T00:29:09.854Z,20.10
2023-02-15T00:31:36.650Z,21.73
2023-02-15T00:34:13.626Z,20.27
2023-02-15T00:36:40.386Z,17.93
2023-02-15T00:39:06.957Z,20.93
2023-02-15T00:41:34.010Z,21.53
2023-02-15T00:44:00.528Z,25.27
2023-02-15T00:46:27.004Z,20.20
2023-02-15T00:48:53.430Z,20.80
2023-02-15T00:51:21.244Z,21.37
2023-02-15T00:53:47.784Z,21.33
2023-02-15T00:56:14.230Z,20.20
2023-02-15T00:58:40.669Z,21.57
2023-02-15T01:01:10.017Z,22.17
2023-02-15T01:03:36.661Z,23.60
2023-02-15T01:06:04.367Z,24.63
2023-02-15T01:08:31.131Z,23.90
2023-02-15T01:10:57.531Z,26.37
2023-02-15T01:13:24.113Z,25.00
2023-02-15T01:15:55.675Z,25.87
2023-02-15T01:18:22.952Z,25.43
2023-02-15T01:20:50.383Z,28.27
2023-02-15T01:23:16.956Z,25.00
2023-02-15T01:25:43.502Z,26.17
2023-02-15T01:28:09.931Z,25.33
2023-02-15T01:30:36.429Z,24.37
2023-02-15T01:33:03.234Z,22.57
2023-02-15T01:35:29.770Z,19.70
2023-02-15T01:37:56.864Z,18.57
2023-02-15T01:40:24.124Z,18.90
2023-02-15T01:42:54.773Z,18.60
2023-02-15T01:45:23.423Z,18.53
2023-02-15T01:47:54.476Z,17.27
2023-02-15T01:50:29.577Z,17.00
2023-02-15T01:53:04.960Z,17.30
2023-02-15T01:55:38.237Z,17.37
2023-02-15T01:58:05.064Z,18.00
2023-02-15T02:00:31.706Z,17.83
2023-02-15T02:02:58.552Z,17.80
2023-02-15T02:05:26.050Z,18.17
2023-02-15T02:07:53.616Z,17.73
2023-02-15T02:10:23.939Z,17.63
2023-02-15T02:12:52.513Z,16.50
2023-02-15T02:15:19.980Z,15.80
2023-02-15T02:17:56.210Z,17.37
2023-02-15T02:20:31.900Z,17.50
2023-02-15T02:23:08.269Z,19.10
2023-02-15T02:25:52.743Z,18.33
2023-02-15T02:28:56.253Z,18.73
2023-02-15T02:31:42.285Z,17.77
2023-02-15T02:34:20.973Z,19.23
2023-02-15T02:36:56.220Z,18.53
2023-02-15T02:39:38.953Z,18.63
2023-02-15T02:42:13.876Z,21.63
2023-02-15T02:44:44.612Z,19.93
2023-02-15T02:47:19.426Z,19.27
2023-02-15T02:49:46.488Z,18.63
2023-02-15T02:52:42.421Z,17.90
2023-02-15T02:55:11.763Z,17.07
2023-02-15T02:57:44.281Z,14.73
2023-02-15T03:00:11.344Z,16.37
2023-02-15T03:02:41.336Z,17.50
2023-02-15T03:05:10.380Z,17.17
2023-02-15T03:07:37.349Z,16.90
2023-02-15T03:10:06.208Z,16.60
2023-02-15T03:12:35.363Z,16.27
2023-02-15T03:15:04.732Z,18.43
2023-02-15T03:17:34.958Z,16.57
2023-02-15T03:20:08.015Z,18.13
2023-02-15T03:22:41.712Z,15.73
2023-02-15T03:25:12.353Z,15.57
2023-02-15T03:27:45.036Z,16.30
2023-02-15T03:30:13.417Z,14.87
2023-02-15T03:32:40.458Z,16.93
2023-02-15T03:35:07.981Z,15.50
2023-02-15T03:37:44.010Z,15.97
2023-02-15T03:40:42.840Z,16.50
2023-02-15T03:43:18.973Z,14.57
2023-02-15T03:45:55.969Z,16.20
2023-02-15T03:48:25.827Z,14.80
2023-02-15T03:51:13.376Z,15.07
2023-02-15T03:53:40.191Z,16.03
2023-02-15T03:56:06.600Z,17.53
2023-02-15T03:58:51.720Z,15.07
2023-02-15T04:01:46.951Z,14.10
2023-02-15T04:04:20.738Z,13.97
2023-02-15T04:06:47.321Z,14.27
2023-02-15T04:09:32.374Z,15.13
2023-02-15T04:11:58.821Z,14.57
2023-02-15T04:14:43.767Z,15.10
2023-02-15T04:17:10.470Z,13.37
2023-02-15T04:19:55.576Z,15.77
2023-02-15T04:22:40.875Z,14.43
2023-02-15T04:25:10.202Z,13.57
2023-02-15T04:27:37.191Z,15.03
2023-02-15T04:30:04.992Z,15.57
2023-02-15T04:32:31.441Z,15.47
2023-02-15T04:34:57.861Z,14.23
2023-02-15T04:37:24.281Z,14.07
2023-02-15T04:39:50.958Z,15.33
2023-02-15T04:42:17.487Z,14.50
2023-02-15T04:44:43.940Z,14.67
2023-02-15T04:47:10.390Z,14.03
2023-02-15T04:49:36.808Z,15.40
2023-02-15T04:52:03.233Z,15.27
2023-02-15T04:54:29.649Z,15.97
2023-02-15T04:56:56.088Z,15.07
2023-02-15T04:59:22.797Z,14.07
2023-02-15T05:01:49.357Z,15.10
2023-02-15T05:04:15.812Z,16.10
2023-02-15T05:06:42.535Z,15.57
2023-02-15T05:09:08.988Z,15.80
2023-02-15T05:11:35.445Z,16.27
2023-02-15T05:14:01.841Z,14.20
2023-02-15T05:16:28.880Z,15.50
2023-02-15T05:18:55.314Z,14.73
2023-02-15T05:21:21.838Z,14.90
2023-02-15T05:23:48.274Z,15.57
2023-02-15T05:26:37.413Z,15.47
2023-02-15T05:29:04.245Z,15.87
2023-02-15T05:31:31.749Z,16.63
2023-02-15T05:33:58.716Z,15.47
2023-02-15T05:36:25.188Z,15.83
2023-02-15T05:38:51.643Z,16.40
2023-02-15T05:41:18.187Z,14.83
2023-02-15T05:43:44.678Z,15.33
2023-02-15T05:46:11.659Z,15.37
2023-02-15T05:48:38.147Z,13.20
2023-02-15T05:51:06.917Z,14.60
2023-02-15T05:53:35.462Z,13.80
2023-02-15T05:56:03.550Z,15.03
2023-02-15T05:58:41.095Z,17.43
2023-02-15T06:01:14.967Z,13.43
2023-02-15T06:03:41.975Z,13.80
2023-02-15T06:06:08.982Z,13.43
2023-02-15T06:08:36.912Z,12.93
2023-02-15T06:11:03.739Z,12.87
2023-02-15T06:13:30.514Z,12.17
2023-02-15T06:15:56.974Z,11.73
2023-02-15T06:18:23.823Z,11.43
2023-02-15T06:20:50.424Z,10.83
2023-02-15T06:23:17.264Z,11.30
2023-02-15T06:25:44.458Z,11.77
2023-02-15T06:28:11.151Z,12.23
2023-02-15T06:30:37.718Z,11.90
2023-02-15T06:33:04.247Z,12.00
2023-02-15T06:35:30.784Z,12.20
2023-02-15T06:37:57.369Z,13.00
2023-02-15T06:40:23.910Z,12.87
2023-02-15T06:42:50.470Z,13.53
2023-02-15T06:45:16.895Z,14.40
2023-02-15T06:47:43.443Z,13.30
2023-02-15T06:50:10.441Z,12.37
2023-02-15T06:52:36.931Z,13.20
2023-02-15T06:55:03.877Z,13.43
2023-02-15T06:57:30.448Z,14.13
2023-02-15T06:59:57.919Z,12.70
2023-02-15T07:02:24.434Z,12.97
2023-02-15T07:04:50.857Z,13.03
2023-02-15T07:07:17.267Z,13.37
2023-02-15T07:09:43.783Z,13.53
2023-02-15T07:12:29.184Z,13.23
2023-02-15T07:14:55.612Z,13.47
2023-02-15T07:17:36.465Z,13.13
2023-02-15T07:20:08.807Z,12.50
2023-02-15T07:22:37.136Z,12.73
2023-02-15T07:25:08.236Z,12.67
2023-02-15T07:27:34.751Z,12.63
2023-02-15T07:30:01.772Z,12.10
2023-02-15T07:32:30.507Z,11.90
2023-02-15T07:34:57.026Z,12.57
2023-02-15T07:37:23.597Z,12.33
2023-02-15T07:39:50.052Z,12.87
2023-02-15T07:42:16.693Z,10.70
2023-02-15T07:44:43.103Z,11.80
2023-02-15T07:47:09.532Z,12.90
2023-02-15T07:49:35.947Z,12.27
2023-02-15T07:52:02.737Z,11.00
2023-02-15T07:54:29.236Z,10.57
2023-02-15T07:56:55.723Z,10.57
2023-02-15T07:59:22.165Z,11.03
2023-02-15T08:01:48.650Z,11.30
2023-02-15T08:04:15.128Z,11.47
2023-02-15T08:06:41.694Z,11.60
2023-02-15T08:09:09.754Z,12.07
2023-02-15T08:11:37.809Z,13.00
2023-02-15T08:14:05.807Z,13.73
2023-02-15T08:16:37.979Z,13.70
2023-02-15T08:19:17.337Z,13.37
2023-02-15T08:21:49.171Z,13.47
2023-02-15T08:24:17.713Z,12.77
2023-02-15T08:26:45.944Z,11.50
2023-02-15T08:29:12.412Z,12.23
2023-02-15T08:31:39.535Z,13.53
2023-02-15T08:34:06.459Z,12.77
2023-02-15T08:36:32.951Z,12.90
2023-02-15T08:39:00.674Z,12.90
2023-02-15T08:41:32.449Z,13.10
2023-02-15T08:44:00.644Z,14.57
2023-02-15T08:46:28.996Z,13.93
2023-02-15T08:48:55.668Z,13.80
2023-02-15T08:51:24.331Z,13.33
2023-02-15T08:53:52.962Z,13.60
2023-02-15T08:56:21.578Z,13.33
2023-02-15T08:58:48.063Z,12.43
2023-02-15T09:01:21.017Z,12.93
2023-02-15T09:03:54.391Z,13.40
2023-02-15T09:06:21.456Z,13.17
2023-02-15T09:08:47.879Z,13.47
2023-02-15T09:11:23.764Z,13.33
2023-02-15T09:14:01.263Z,13.53
2023-02-15T09:16:30.147Z,12.50
2023-02-15T09:18:58.531Z,12.90
2023-02-15T09:21:26.339Z,13.00
2023-02-15T09:23:58.224Z,13.67
2023-02-15T09:26:25.579Z,14.73
2023-02-15T09:28:54.388Z,14.03
2023-02-15T09:31:23.142Z,14.50
2023-02-15T09:33:50.539Z,17.27
2023-02-15T09:36:28.492Z,16.73
2023-02-15T09:38:59.389Z,16.03
2023-02-15T09:41:37.948Z,15.77
2023-02-15T09:44:35.757Z,15.93
2023-02-15T09:47:31.453Z,14.60
2023-02-15T09:50:26.890Z,14.27
2023-02-15T09:53:28.502Z,15.80
2023-02-15T09:56:17.258Z,15.33
2023-02-15T09:58:53.656Z,14.10
2023-02-15T10:01:48.109Z,14.57
2023-02-15T10:04:31.261Z,16.33
2023-02-15T10:07:07.467Z,15.00
2023-02-15T10:09:52.290Z,15.90
2023-02-15T10:12:32.362Z,18.27
2023-02-15T10:15:08.104Z,17.93
2023-02-15T10:17:54.738Z,17.83
2023-02-15T10:20:28.077Z,18.47
2023-02-15T10:23:25.587Z,17.93
2023-02-15T10:26:37.060Z,16.40
2023-02-15T10:29:17.784Z,17.70
2023-02-15T10:32:13.820Z,17.20
2023-02-15T10:34:57.381Z,18.10
2023-02-15T10:37:42.455Z,18.30
2023-02-15T10:40:11.941Z,17.83
2023-02-15T10:43:05.356Z,17.43
2023-02-15T10:45:57.866Z,16.97
2023-02-15T10:48:36.135Z,16.83
2023-02-15T10:51:05.157Z,17.80
2023-02-15T10:53:56.532Z,17.27
2023-02-15T10:56:31.823Z,17.23
2023-02-15T10:59:18.396Z,17.90
2023-02-15T11:01:49.623Z,14.17
2023-02-15T11:04:25.143Z,17.10
2023-02-15T11:06:57.479Z,18.00
2023-02-15T11:09:26.986Z,17.53
2023-02-15T11:11:55.197Z,17.00
2023-02-15T11:14:33.003Z,18.40
2023-02-15T11:17:04.174Z,17.53
2023-02-15T11:19:37.025Z,18.17
2023-02-15T11:22:05.785Z,19.07
2023-02-15T11:24:38.453Z,17.50
2023-02-15T11:27:13.939Z,19.57
2023-02-15T11:29:53.707Z,19.47
2023-02-15T11:32:29.429Z,18.03
2023-02-15T11:35:05.803Z,18.67
2023-02-15T11:37:36.871Z,19.43
2023-02-15T11:40:05.007Z,20.33
2023-02-15T11:42:32.731Z,19.27
2023-02-15T11:45:20.750Z,18.33
2023-02-15T11:47:47.169Z,19.30
2023-02-15T11:50:23.073Z,19.23
2023-02-15T11:52:53.920Z,20.93
2023-02-15T11:55:23.787Z,17.43
2023-02-15T11:57:56.693Z,20.07
2023-02-15T12:00:37.053Z,20.13
2023-02-15T12:03:10.908Z,20.27
2023-02-15T12:05:38.975Z,20.13
2023-02-15T12:08:13.440Z,18.97
2023-02-15T12:10:48.909Z,20.30
2023-02-15T12:13:18.630Z,17.87
2023-02-15T12:15:47.739Z,19.23
2023-02-15T12:18:40.064Z,19.43
2023-02-15T12:21:12.781Z,19.03
2023-02-15T12:23:50.069Z,17.40
2023-02-15T12:26:25.154Z,19.17
2023-02-15T12:28:53.261Z,19.73
2023-02-15T12:31:26.125Z,20.27
2023-02-15T12:33:55.142Z,18.90
2023-02-15T12:36:33.694Z,20.40
2023-02-15T12:39:12.592Z,19.57
2023-02-15T12:41:46.194Z,20.63
2023-02-15T12:44:21.961Z,21.17
2023-02-15T12:46:58.100Z,22.23
2023-02-15T12:49:25.147Z,24.07
2023-02-15T12:52:03.619Z,24.10
2023-02-15T12:54:35.619Z,24.73
2023-02-15T12:57:14.450Z,22.53
2023-02-15T13:00:19.735Z,25.77
2023-02-15T13:02:49.793Z,24.13
2023-02-15T13:05:36.712Z,24.07
2023-02-15T13:08:11.350Z,24.67
2023-02-15T13:11:01.419Z,26.20
2023-02-15T13:13:30.676Z,24.33
2023-02-15T13:16:04.046Z,24.73
2023-02-15T13:18:40.206Z,24.83
2023-02-15T13:21:19.770Z,23.90
2023-02-15T13:23:52.883Z,25.23
2023-02-15T13:26:21.701Z,24.23
2023-02-15T13:28:51.867Z,24.77
2023-02-15T13:31:26.834Z,25.60
2023-02-15T13:34:01.412Z,25.13
2023-02-15T13:36:42.562Z,25.97
2023-02-15T13:39:17.985Z,25.07
2023-02-15T13:41:54.375Z,25.80
2023-02-15T13:44:58.640Z,25.43
2023-02-15T13:47:40.600Z,22.13
2023-02-15T13:50:28.494Z,23.77
2023-02-15T13:53:18.884Z,25.00
2023-02-15T13:55:48.954Z,24.53
2023-02-15T13:58:26.664Z,25.97
2023-02-15T14:01:18.213Z,25.70
2023-02-15T14:04:08.977Z,23.73
2023-02-15T14:06:48.980Z,24.20
2023-02-15T14:09:19.659Z,22.70
2023-02-15T14:11:58.481Z,22.67
2023-02-15T14:14:36.854Z,23.27
2023-02-15T14:17:27.642Z,22.77
2023-02-15T14:19:59.331Z,21.90
2023-02-15T14:22:43.228Z,23.80
2023-02-15T14:25:19.330Z,23.60
2023-02-15T14:28:07.332Z,23.60
2023-02-15T14:30:38.040Z,22.90
2023-02-15T14:33:41.134Z,20.93
2023-02-15T14:36:09.831Z,21.70
2023-02-15T14:38:57.761Z,21.47
2023-02-15T14:41:51.356Z,20.67
2023-02-15T14:44:31.159Z,22.87
2023-02-15T14:47:32.357Z,21.67
2023-02-15T14:49:59.155Z,21.03
2023-02-15T14:52:26.014Z,21.07
2023-02-15T14:54:57.521Z,20.80
2023-02-15T14:57:25.975Z,21.30
2023-02-15T15:00:02.274Z,19.70
2023-02-15T15:02:41.315Z,18.63
2023-02-15T15:05:09.654Z,20.70
2023-02-15T15:07:46.739Z,22.27
2023-02-15T15:10:21.038Z,20.73
2023-02-15T15:12:49.071Z,19.10
2023-02-15T15:15:36.020Z,21.40
2023-02-15T15:18:07.856Z,18.93
2023-02-15T15:20:51.329Z,20.70
2023-02-15T15:23:27.568Z,20.53
2023-02-15T15:25:59.230Z,19.37
2023-02-15T15:28:35.110Z,20.40
2023-02-15T15:31:02.026Z,20.73
2023-02-15T15:33:50.768Z,19.43
2023-02-15T15:36:31.031Z,20.33
2023-02-15T15:39:36.679Z,21.20
2023-02-15T15:42:18.688Z,19.47
2023-02-15T15:45:24.444Z,19.13
2023-02-15T15:48:07.055Z,19.30
2023-02-15T15:50:34.912Z,20.30
2023-02-15T15:53:02.654Z,17.67
2023-02-15T15:55:32.520Z,19.33
2023-02-15T15:58:08.010Z,19.83
2023-02-15T16:00:43.804Z,19.93
2023-02-15T16:03:23.187Z,18.63
2023-02-15T16:05:55.330Z,19.57
2023-02-15T16:08:38.544Z,19.77
2023-02-15T16:11:15.711Z,20.23
2023-02-15T16:13:43.318Z,19.10
2023-02-15T16:16:10.562Z,18.13
2023-02-15T16:18:39.993Z,19.30
2023-02-15T16:21:06.506Z,19.53
2023-02-15T16:23:51.495Z,20.10
2023-02-15T16:26:30.398Z,21.70
2023-02-15T16:28:56.838Z,20.17
2023-02-15T16:31:24.058Z,20.80
2023-02-15T16:33:53.738Z,20.07
2023-02-15T16:36:28.804Z,21.77
2023-02-15T16:38:58.222Z,20.70
2023-02-15T16:41:28.236Z,19.33
2023-02-15T16:43:57.513Z,21.43
2023-02-15T16:46:26.899Z,20.03
2023-02-15T16:48:56.532Z,20.30
2023-02-15T16:51:27.592Z,20.20
2023-02-15T16:53:56.192Z,19.93
2023-02-15T16:56:31.350Z,20.03
2023-02-15T16:58:58.917Z,20.30
2023-02-15T17:01:29.079Z,21.03
2023-02-15T17:04:14.502Z,20.90
2023-02-15T17:06:40.971Z,19.03
2023-02-15T17:09:15.611Z,19.93
2023-02-15T17:11:44.000Z,21.53
2023-02-15T17:14:10.863Z,21.03
2023-02-15T17:16:42.439Z,19.37
2023-02-15T17:19:18.292Z,21.63
2023-02-15T17:21:57.031Z,21.37
2023-02-15T17:24:32.990Z,21.33
2023-02-15T17:27:03.705Z,20.87
2023-02-15T17:29:33.580Z,19.87
2023-02-15T17:32:00.595Z,20.30
2023-02-15T17:35:04.233Z,20.93
2023-02-15T17:37:36.837Z,19.27
2023-02-15T17:40:26.841Z,20.50
2023-02-15T17:42:57.472Z,20.97
2023-02-15T17:45:27.284Z,21.07
2023-02-15T17:47:53.931Z,21.10
2023-02-15T17:50:23.240Z,22.37
2023-02-15T17:52:50.522Z,21.33
2023-02-15T17:55:37.611Z,22.20
2023-02-15T17:58:06.716Z,22.03
2023-02-15T18:00:53.870Z,22.73
2023-02-15T18:03:39.114Z,23.23
2023-02-15T18:06:24.417Z,22.60
2023-02-15T18:09:11.584Z,22.10
2023-02-15T18:11:39.128Z,21.67
2023-02-15T18:14:10.070Z,22.63
2023-02-15T18:16:40.788Z,21.33
2023-02-15T18:19:10.667Z,21.77
2023-02-15T18:21:37.083Z,21.67
2023-02-15T18:24:03.638Z,21.77
2023-02-15T18:26:30.096Z,22.63
2023-02-15T18:28:56.486Z,21.93
2023-02-15T18:31:24.053Z,21.07
2023-02-15T18:33:54.284Z,21.93
2023-02-15T18:36:25.734Z,21.70
2023-02-15T18:38:53.473Z,21.30
2023-02-15T18:41:21.142Z,21.73
2023-02-15T18:43:48.938Z,21.43
2023-02-15T18:46:17.025Z,21.33
2023-02-15T18:48:44.041Z,23.00
2023-02-15T18:51:18.988Z,23.03
2023-02-15T18:53:46.598Z,23.13
2023-02-15T18:56:18.476Z,22.57
2023-02-15T18:58:49.252Z,20.97
2023-02-15T19:01:18.483Z,21.17
2023-02-15T19:03:49.435Z,23.63
2023-02-15T19:06:18.608Z,22.00
2023-02-15T19:08:47.090Z,21.50
2023-02-15T19:11:19.445Z,23.80
2023-02-15T19:13:48.752Z,22.33
2023-02-15T19:16:30.645Z,21.10
2023-02-15T19:18:57.557Z,23.80
2023-02-15T19:21:24.697Z,22.63
2023-02-15T19:23:56.908Z,22.27
2023-02-15T19:26:28.691Z,21.30
2023-02-15T19:29:00.914Z,20.60
2023-02-15T19:31:27.738Z,22.43
2023-02-15T19:33:54.331Z,21.87
2023-02-15T19:36:22.846Z,22.53
2023-02-15T19:38:51.502Z,21.27
2023-02-15T19:41:23.776Z,21.63
2023-02-15T19:43:55.117Z,22.10
2023-02-15T19:46:23.202Z,23.17
2023-02-15T19:48:53.695Z,22.17
2023-02-15T19:51:21.835Z,23.33
2023-02-15T19:53:49.199Z,22.10
2023-02-15T19:56:23.428Z,22.60
2023-02-15T19:58:52.042Z,22.33
2023-02-15T20:01:19.427Z,23.10
2023-02-15T20:03:45.845Z,23.13
2023-02-15T20:06:15.634Z,22.57
2023-02-15T20:08:42.574Z,20.53
2023-02-15T20:11:13.284Z,21.63
2023-02-15T20:13:40.522Z,22.67
2023-02-15T20:16:08.349Z,21.57
2023-02-15T20:18:35.179Z,21.23
2023-02-15T20:21:02.780Z,23.63
2023-02-15T20:23:32.378Z,22.17
2023-02-15T20:26:00.460Z,22.27
2023-02-15T20:28:29.510Z,23.60
2023-02-15T20:30:56.078Z,22.70
2023-02-15T20:33:23.100Z,23.67
2023-02-15T20:35:50.521Z,25.10
2023-02-15T20:38:25.461Z,23.23
2023-02-15T20:41:10.547Z,24.37
2023-02-15T20:43:37.139Z,24.13
2023-02-15T20:46:04.175Z,21.93
2023-02-15T20:48:30.941Z,21.60
2023-02-15T20:51:00.340Z,23.57
2023-02-15T20:53:28.307Z,24.13
2023-02-15T20:55:55.177Z,24.23
2023-02-15T20:58:29.608Z,23.27
2023-02-15T21:00:58.056Z,23.67
2023-02-15T21:03:31.114Z,21.87
2023-02-15T21:05:58.389Z,22.40
2023-02-15T21:08:25.092Z,25.27
2023-02-15T21:10:52.728Z,23.53
2023-02-15T21:13:27.968Z,23.03
2023-02-15T21:15:55.343Z,26.10
2023-02-15T21:18:24.260Z,24.73
2023-02-15T21:20:53.084Z,23.63
2023-02-15T21:23:29.391Z,24.73
2023-02-15T21:25:56.548Z,23.67
2023-02-15T21:28:25.295Z,22.53
2023-02-15T21:30:52.609Z,23.70
2023-02-15T21:33:19.370Z,25.07
2023-02-15T21:35:48.858Z,24.87
2023-02-15T21:38:17.272Z,24.90
2023-02-15T21:40:44.217Z,24.20
2023-02-15T21:43:33.666Z,24.10
2023-02-15T21:46:23.747Z,23.60
2023-02-15T21:48:50.181Z,25.00
2023-02-15T21:51:35.315Z,24.63
2023-02-15T21:54:01.746Z,25.07
2023-02-15T21:56:28.325Z,25.00
2023-02-15T21:58:54.866Z,26.03
2023-02-15T22:01:24.470Z,26.57
2023-02-15T22:03:51.121Z,23.87
2023-02-15T22:06:18.501Z,25.77
2023-02-15T22:08:45.292Z,24.97
2023-02-15T22:11:13.790Z,25.20
2023-02-15T22:13:41.090Z,25.73
2023-02-15T22:16:07.498Z,22.57
2023-02-15T22:18:34.404Z,22.33
2023-02-15T22:21:01.535Z,25.27
2023-02-15T22:23:28.194Z,25.83
2023-02-15T22:26:19.940Z,25.10
2023-02-15T22:28:46.364Z,23.83
2023-02-15T22:31:15.230Z,24.07
2023-02-15T22:33:41.959Z,25.13
2023-02-15T22:36:35.030Z,27.10
2023-02-15T22:39:01.552Z,27.73
2023-02-15T22:41:30.537Z,26.13
2023-02-15T22:43:57.162Z,24.07
2023-02-15T22:46:24.809Z,24.93
2023-02-15T22:48:52.154Z,25.67
2023-02-15T22:51:21.093Z,26.27
2023-02-15T22:53:49.697Z,24.70
2023-02-15T22:56:20.641Z,24.37
2023-02-15T22:58:49.513Z,26.47
2023-02-15T23:01:26.842Z,24.87
2023-02-15T23:03:53.321Z,25.50
2023-02-15T23:06:19.800Z,26.23
2023-02-15T23:08:46.349Z,26.90
2023-02-15T23:11:12.849Z,27.33
2023-02-15T23:13:39.478Z,25.83
2023-02-15T23:16:07.258Z,24.50
2023-02-15T23:18:41.440Z,24.40
2023-02-15T23:21:25.908Z,26.47
2023-02-15T23:23:54.986Z,25.63
2023-02-15T23:26:27.774Z,27.87
2023-02-15T23:28:55.944Z,28.27
2023-02-15T23:31:31.709Z,26.43
2023-02-15T23:33:59.914Z,27.10
2023-02-15T23:36:29.811Z,27.70
2023-02-15T23:38:58.573Z,28.47
2023-02-15T23:41:28.106Z,28.33
2023-02-15T23:44:03.420Z,30.20
2023-02-15T23:46:34.837Z,27.63
2023-02-15T23:49:01.249Z,27.53
2023-02-15T23:51:30.609Z,26.40
2023-02-15T23:53:57.743Z,27.27
2023-02-15T23:56:24.148Z,29.57
2023-02-15T23:58:50.812Z,28.37
